ROTAER D-AMDT 8/24 Ver mudanças

Carauari ( SWCA ) / CARAUARI, AM 04 52 17S/066 53 51W
AD PUB 1NW UTC-4 108 (354)

04 - ( 1665x18 ASPH 12/F/C/Y/T ) - 22

SBAZ (CINDACTA 4)
CMB- [1] PF [1] TF
MET - MET CIVIL –

RMK -

OBSTÁCULO DE AERÓDROMO
  1. OBS OBST (casa) DIST 180M THR 04, AZM 218DEG, ELEV 365FT
INFORMAÇÃO METEOROLÓGICA FORNECIDA
  1. ERAA FREQ 130.425MHZ .
INFORMAÇÃO ADICIONAL
  1. OBS concentração de pássaros (urubus) nas proximidades do AD.
DISTÂNCIA(S) DECLARADA(S)
  1.  
RWY TORA(m) TODA(m) ASDA(m) LDA(m) ALT. GEOIDAL(m) COORDENADAS
04 1665 1665 1665 1665
22 1665 1665 1665 1665
COMPL -
  • [1] (DLY 1000-2200)
TEMP (0)

Suplementos AIP (0)

NOTAM (Carregando ...)


Nascer/Por do Sol

10:26

22:25


METAR

210400Z AUTO VRB01KT CAVOK 24/24 Q1015=

TAF


OPEA/Obstáculos


Cartas (0)


Rotas Preferenciais (0)